createdAt,value
2023-02-11T00:01:43.713Z,6.70
2023-02-11T00:04:45.432Z,6.60
2023-02-11T00:07:47.174Z,6.70
2023-02-11T00:10:52.895Z,6.70
2023-02-11T00:13:54.655Z,6.70
2023-02-11T00:16:57.018Z,6.70
2023-02-11T00:19:58.809Z,6.70
2023-02-11T00:23:00.527Z,6.70
2023-02-11T00:26:02.500Z,6.70
2023-02-11T00:29:05.437Z,6.70
2023-02-11T00:32:08.973Z,6.70
2023-02-11T00:35:10.746Z,6.70
2023-02-11T00:38:14.332Z,6.70
2023-02-11T00:41:16.883Z,6.70
2023-02-11T00:44:18.746Z,6.80
2023-02-11T00:47:22.879Z,6.70
2023-02-11T00:50:25.054Z,6.70
2023-02-11T00:53:26.871Z,6.80
2023-02-11T00:56:28.689Z,6.80
2023-02-11T00:59:31.383Z,6.70
2023-02-11T01:02:33.531Z,6.80
2023-02-11T01:05:35.548Z,6.80
2023-02-11T01:08:38.129Z,6.80
2023-02-11T01:11:39.979Z,6.80
2023-02-11T01:14:42.060Z,6.80
2023-02-11T01:17:43.824Z,6.80
2023-02-11T01:20:46.800Z,6.80
2023-02-11T01:23:48.533Z,6.80
2023-02-11T01:26:50.314Z,6.80
2023-02-11T01:29:52.134Z,6.80
2023-02-11T01:32:55.446Z,6.80
2023-02-11T01:36:01.776Z,6.80
2023-02-11T01:39:03.828Z,6.80
2023-02-11T01:42:06.048Z,6.80
2023-02-11T01:45:46.080Z,6.80
2023-02-11T01:48:55.214Z,6.80
2023-02-11T01:52:03.450Z,6.70
2023-02-11T01:55:31.117Z,6.70
2023-02-11T01:58:35.984Z,6.70
2023-02-11T02:01:40.668Z,6.70
2023-02-11T02:04:57.958Z,6.70
2023-02-11T02:08:13.615Z,6.70
2023-02-11T02:11:15.516Z,6.70
2023-02-11T02:14:17.814Z,6.70
2023-02-11T02:17:38.960Z,6.70
2023-02-11T02:21:11.641Z,6.70
2023-02-11T02:24:37.921Z,6.70
2023-02-11T02:27:58.124Z,6.70
2023-02-11T02:31:49.798Z,6.70
2023-02-11T02:35:17.628Z,6.70
2023-02-11T02:38:26.553Z,6.60
2023-02-11T02:41:31.734Z,6.60
2023-02-11T02:44:34.009Z,5.70
2023-02-11T02:47:35.722Z,6.60
2023-02-11T02:50:37.940Z,6.60
2023-02-11T02:53:53.366Z,6.60
2023-02-11T02:57:33.808Z,6.60
2023-02-11T03:01:02.875Z,6.60
2023-02-11T03:04:27.088Z,6.60
2023-02-11T03:07:37.292Z,6.50
2023-02-11T03:10:44.065Z,6.50
2023-02-11T03:13:47.463Z,6.60
2023-02-11T03:16:51.284Z,6.60
2023-02-11T03:19:53.773Z,6.50
2023-02-11T03:23:27.115Z,6.50
2023-02-11T03:26:39.350Z,6.60
2023-02-11T03:29:51.482Z,6.60
2023-02-11T03:33:01.377Z,6.50
2023-02-11T03:36:09.183Z,6.50
2023-02-11T03:39:14.290Z,6.60
2023-02-11T03:42:16.594Z,6.50
2023-02-11T03:45:22.249Z,6.50
2023-02-11T03:48:29.783Z,6.50
2023-02-11T03:51:32.961Z,6.50
2023-02-11T03:54:35.744Z,6.50
2023-02-11T03:57:38.068Z,6.50
2023-02-11T04:00:41.501Z,6.50
2023-02-11T04:03:43.438Z,6.50
2023-02-11T04:06:45.253Z,6.50
2023-02-11T04:09:46.987Z,6.50
2023-02-11T04:12:48.773Z,6.50
2023-02-11T04:15:50.996Z,6.50
2023-02-11T04:18:53.290Z,6.50
2023-02-11T04:21:55.018Z,6.50
2023-02-11T04:24:56.895Z,6.50
2023-02-11T04:27:58.670Z,6.40
2023-02-11T04:31:00.638Z,6.50
2023-02-11T04:34:02.536Z,6.50
2023-02-11T04:37:04.759Z,6.50
2023-02-11T04:40:07.050Z,6.50
2023-02-11T04:43:09.042Z,6.50
2023-02-11T04:46:10.891Z,6.50
2023-02-11T04:49:14.581Z,6.50
2023-02-11T04:52:16.308Z,6.50
2023-02-11T04:55:18.086Z,6.40
2023-02-11T04:58:20.150Z,6.40
2023-02-11T05:01:22.029Z,6.40
2023-02-11T05:04:24.080Z,6.40
2023-02-11T05:07:25.883Z,6.40
2023-02-11T05:10:28.611Z,6.40
2023-02-11T05:13:30.691Z,6.40
2023-02-11T05:16:32.763Z,6.40
2023-02-11T05:19:34.485Z,6.40
2023-02-11T05:22:36.232Z,6.50
2023-02-11T05:25:38.465Z,6.40
2023-02-11T05:28:40.514Z,6.40
2023-02-11T05:31:42.228Z,6.40
2023-02-11T05:34:43.940Z,6.40
2023-02-11T05:37:45.650Z,6.40
2023-02-11T05:40:47.529Z,6.40
2023-02-11T05:43:51.011Z,6.40
2023-02-11T05:46:52.772Z,6.40
2023-02-11T05:49:54.541Z,6.30
2023-02-11T05:52:56.384Z,6.40
2023-02-11T05:55:58.332Z,6.40
2023-02-11T05:59:00.358Z,6.40
2023-02-11T06:02:02.328Z,6.40
2023-02-11T06:05:04.141Z,6.40
2023-02-11T06:08:05.930Z,6.40
2023-02-11T06:11:07.655Z,6.40
2023-02-11T06:14:10.918Z,6.40
2023-02-11T06:17:15.547Z,6.40
2023-02-11T06:20:17.544Z,6.40
2023-02-11T06:23:19.318Z,6.40
2023-02-11T06:26:23.249Z,6.30
2023-02-11T06:29:24.944Z,6.40
2023-02-11T06:32:45.705Z,6.40
2023-02-11T06:35:47.711Z,6.30
2023-02-11T06:38:52.901Z,6.40
2023-02-11T06:41:55.405Z,6.40
2023-02-11T06:44:57.281Z,6.40
2023-02-11T06:47:59.247Z,6.50
2023-02-11T06:51:10.676Z,6.40
2023-02-11T06:54:13.027Z,6.40
2023-02-11T06:57:14.729Z,6.40
2023-02-11T07:00:16.923Z,6.40
2023-02-11T07:03:18.677Z,6.40
2023-02-11T07:06:24.677Z,6.40
2023-02-11T07:09:26.467Z,6.40
2023-02-11T07:12:28.178Z,6.40
2023-02-11T07:15:29.905Z,6.40
2023-02-11T07:18:31.697Z,6.40
2023-02-11T07:21:33.597Z,6.40
2023-02-11T07:24:35.336Z,6.40
2023-02-11T07:27:37.075Z,6.50
2023-02-11T07:30:38.787Z,6.40
2023-02-11T07:33:41.636Z,6.50
2023-02-11T07:36:46.094Z,6.50
2023-02-11T07:39:47.869Z,6.50
2023-02-11T07:42:49.656Z,6.50
2023-02-11T07:45:51.533Z,6.50
2023-02-11T07:48:53.822Z,6.50
2023-02-11T07:51:55.647Z,6.50
2023-02-11T07:54:57.536Z,6.50
2023-02-11T07:57:59.321Z,6.50
2023-02-11T08:01:07.029Z,6.00
2023-02-11T08:04:08.770Z,6.60
2023-02-11T08:07:10.494Z,6.60
2023-02-11T08:10:12.241Z,6.60
2023-02-11T08:13:13.979Z,6.70
2023-02-11T08:16:20.364Z,6.70
2023-02-11T08:19:22.258Z,6.70
2023-02-11T08:22:23.956Z,6.70
2023-02-11T08:25:25.744Z,6.70
2023-02-11T08:28:27.499Z,6.70
2023-02-11T08:31:38.560Z,6.80
2023-02-11T08:34:40.635Z,6.80
2023-02-11T08:37:42.358Z,6.80
2023-02-11T08:40:44.126Z,6.80
2023-02-11T08:43:46.377Z,6.80
2023-02-11T08:46:49.017Z,6.90
2023-02-11T08:49:50.851Z,6.90
2023-02-11T08:52:52.598Z,6.90
2023-02-11T08:55:55.844Z,7.00
2023-02-11T08:58:57.731Z,7.10
2023-02-11T09:01:59.487Z,7.10
2023-02-11T09:05:01.379Z,7.10
2023-02-11T09:08:03.085Z,7.20
2023-02-11T09:11:05.388Z,7.20
2023-02-11T09:14:07.729Z,7.30
2023-02-11T09:17:09.546Z,7.20
2023-02-11T09:20:11.511Z,7.30
2023-02-11T09:23:13.510Z,7.30
2023-02-11T09:26:18.209Z,7.30
2023-02-11T09:29:19.922Z,7.30
2023-02-11T09:32:21.619Z,7.40
2023-02-11T09:35:23.364Z,7.30
2023-02-11T09:38:25.065Z,7.40
2023-02-11T09:41:40.923Z,7.30
2023-02-11T09:44:46.066Z,7.40
2023-02-11T09:48:05.815Z,7.40
2023-02-11T09:51:20.255Z,7.40
2023-02-11T09:54:36.347Z,7.40
2023-02-11T09:57:38.046Z,7.50
2023-02-11T10:01:07.021Z,7.50
2023-02-11T10:04:23.816Z,7.50
2023-02-11T10:07:51.287Z,7.50
2023-02-11T10:11:01.931Z,7.60
2023-02-11T10:14:30.276Z,7.70
2023-02-11T10:17:53.171Z,7.70
2023-02-11T10:21:47.348Z,7.70
2023-02-11T10:25:00.370Z,7.70
2023-02-11T10:28:15.132Z,7.70
2023-02-11T10:31:26.755Z,7.70
2023-02-11T10:34:28.611Z,7.80
2023-02-11T10:37:30.841Z,7.80
2023-02-11T10:40:32.709Z,7.80
2023-02-11T10:43:34.961Z,7.90
2023-02-11T10:46:40.153Z,8.00
2023-02-11T10:49:44.792Z,8.10
2023-02-11T10:52:46.531Z,8.20
2023-02-11T10:55:57.224Z,8.20
2023-02-11T10:59:07.164Z,8.10
2023-02-11T11:02:34.396Z,8.10
2023-02-11T11:05:45.839Z,8.20
2023-02-11T11:08:48.827Z,8.20
2023-02-11T11:11:53.895Z,8.20
2023-02-11T11:15:14.248Z,8.30
2023-02-11T11:18:25.671Z,8.30
2023-02-11T11:21:33.594Z,8.30
2023-02-11T11:24:44.756Z,8.40
2023-02-11T11:27:50.571Z,8.50
2023-02-11T11:30:55.725Z,8.60
2023-02-11T11:34:00.104Z,8.60
2023-02-11T11:37:33.105Z,8.50
2023-02-11T11:40:35.543Z,8.60
2023-02-11T11:43:37.707Z,8.60
2023-02-11T11:46:43.889Z,8.50
2023-02-11T11:49:55.329Z,8.50
2023-02-11T11:53:04.906Z,8.60
2023-02-11T11:56:21.678Z,8.60
2023-02-11T11:59:23.459Z,8.60
2023-02-11T12:02:50.491Z,8.60
2023-02-11T12:06:12.488Z,8.70
2023-02-11T12:09:53.417Z,8.70
2023-02-11T12:13:10.218Z,8.70
2023-02-11T12:16:20.676Z,8.80
2023-02-11T12:19:42.557Z,8.90
2023-02-11T12:22:56.521Z,9.10
2023-02-11T12:26:30.433Z,9.10
2023-02-11T12:29:46.945Z,9.20
2023-02-11T12:33:18.339Z,9.20
2023-02-11T12:36:28.932Z,9.40
2023-02-11T12:40:02.730Z,9.40
2023-02-11T12:43:23.384Z,9.60
2023-02-11T12:46:33.924Z,10.00
2023-02-11T12:50:13.304Z,9.90
2023-02-11T12:53:30.059Z,9.80
2023-02-11T12:56:43.414Z,9.80
2023-02-11T13:00:00.178Z,9.80
2023-02-11T13:03:09.359Z,9.80
2023-02-11T13:06:20.310Z,9.80
2023-02-11T13:09:30.077Z,9.70
2023-02-11T13:12:52.246Z,9.50
2023-02-11T13:16:01.765Z,9.50
2023-02-11T13:19:10.561Z,9.40
2023-02-11T13:22:20.807Z,9.40
2023-02-11T13:25:43.203Z,9.50
2023-02-11T13:29:06.789Z,9.60
2023-02-11T13:32:10.322Z,9.50
2023-02-11T13:35:33.182Z,9.50
2023-02-11T13:42:04.623Z,9.50
2023-02-11T13:45:24.964Z,9.50
2023-02-11T13:48:33.095Z,9.40
2023-02-11T13:51:38.862Z,9.50
2023-02-11T13:54:41.158Z,9.50
2023-02-11T13:57:43.041Z,9.50
2023-02-11T14:00:48.286Z,9.50
2023-02-11T14:04:38.542Z,9.50
2023-02-11T14:08:27.803Z,9.50
2023-02-11T14:11:41.552Z,9.50
2023-02-11T14:15:07.783Z,9.60
2023-02-11T14:18:46.874Z,9.60
2023-02-11T14:21:49.072Z,9.60
2023-02-11T14:24:55.543Z,9.60
2023-02-11T14:28:04.760Z,9.60
2023-02-11T14:31:14.043Z,9.50
2023-02-11T14:34:35.948Z,9.50
2023-02-11T14:37:59.618Z,9.60
2023-02-11T14:41:24.939Z,9.60
2023-02-11T14:44:30.060Z,9.50
2023-02-11T14:47:45.644Z,9.60
2023-02-11T14:50:54.129Z,9.60
2023-02-11T14:54:24.394Z,9.70
2023-02-11T14:57:27.652Z,9.60
2023-02-11T15:00:29.596Z,9.60
2023-02-11T15:03:39.996Z,9.60
2023-02-11T15:06:45.586Z,9.50
2023-02-11T15:09:51.264Z,9.60
2023-02-11T15:12:53.470Z,9.50
2023-02-11T15:16:05.838Z,9.50
2023-02-11T15:19:16.726Z,9.50
2023-02-11T15:22:26.054Z,9.50
2023-02-11T15:25:28.584Z,9.50
2023-02-11T15:28:35.073Z,9.50
2023-02-11T15:31:36.960Z,9.50
2023-02-11T15:34:39.155Z,9.50
2023-02-11T15:37:40.930Z,9.60
2023-02-11T15:40:53.646Z,9.50
2023-02-11T15:43:55.497Z,9.50
2023-02-11T15:46:58.027Z,9.40
2023-02-11T15:50:00.139Z,9.40
2023-02-11T15:53:22.298Z,9.40
2023-02-11T15:56:32.894Z,9.40
2023-02-11T15:59:38.808Z,9.30
2023-02-11T16:02:45.026Z,9.30
2023-02-11T16:05:46.815Z,9.30
2023-02-11T16:09:05.703Z,9.30
2023-02-11T16:12:24.552Z,9.30
2023-02-11T16:15:35.161Z,9.30
2023-02-11T16:19:03.267Z,9.40
2023-02-11T16:22:14.117Z,9.30
2023-02-11T16:25:20.701Z,9.20
2023-02-11T16:28:22.491Z,9.20
2023-02-11T16:31:33.247Z,9.20
2023-02-11T16:34:35.551Z,9.10
2023-02-11T16:37:37.995Z,9.10
2023-02-11T16:40:40.079Z,9.20
2023-02-11T16:43:41.790Z,9.10
2023-02-11T16:46:43.942Z,9.10
2023-02-11T16:49:45.716Z,9.10
2023-02-11T16:52:49.126Z,9.10
2023-02-11T16:55:52.627Z,9.00
2023-02-11T16:58:54.327Z,9.10
2023-02-11T17:01:57.382Z,9.10
2023-02-11T17:05:01.860Z,9.00
2023-02-11T17:08:03.729Z,9.00
2023-02-11T17:11:05.638Z,9.00
2023-02-11T17:14:07.405Z,9.00
2023-02-11T17:17:10.308Z,8.90
2023-02-11T17:20:13.827Z,8.80
2023-02-11T17:23:15.669Z,8.80
2023-02-11T17:26:17.404Z,8.90
2023-02-11T17:29:22.637Z,8.80
2023-02-11T17:32:24.433Z,8.80
2023-02-11T17:35:26.401Z,8.80
2023-02-11T17:38:28.114Z,8.80
2023-02-11T17:41:30.311Z,8.80
2023-02-11T17:44:33.034Z,8.90
2023-02-11T17:47:34.803Z,8.90
2023-02-11T17:50:36.994Z,8.90
2023-02-11T17:53:38.696Z,8.90
2023-02-11T17:56:41.420Z,8.90
2023-02-11T17:59:43.218Z,8.90
2023-02-11T18:02:44.936Z,8.90
2023-02-11T18:05:46.686Z,8.90
2023-02-11T18:08:48.677Z,8.90
2023-02-11T18:11:52.456Z,8.80
2023-02-11T18:14:57.906Z,8.80
2023-02-11T18:17:59.972Z,8.90
2023-02-11T18:21:03.995Z,8.80
2023-02-11T18:24:06.920Z,8.80
2023-02-11T18:27:09.698Z,8.80
2023-02-11T18:30:15.772Z,8.80
2023-02-11T18:33:17.504Z,8.80
2023-02-11T18:36:20.834Z,8.70
2023-02-11T18:39:24.164Z,8.70
2023-02-11T18:42:26.398Z,8.70
2023-02-11T18:45:31.280Z,8.70
2023-02-11T18:48:33.089Z,8.70
2023-02-11T18:51:34.871Z,8.70
2023-02-11T18:54:36.571Z,8.70
2023-02-11T18:57:38.352Z,8.70
2023-02-11T19:00:42.987Z,8.70
2023-02-11T19:03:45.701Z,8.70
2023-02-11T19:06:49.413Z,8.60
2023-02-11T19:09:51.266Z,8.70
2023-02-11T19:12:56.217Z,8.70
2023-02-11T19:15:58.014Z,8.70
2023-02-11T19:18:59.726Z,8.70
2023-02-11T19:22:02.853Z,8.60
2023-02-11T19:25:04.889Z,8.70
2023-02-11T19:28:06.712Z,8.60
2023-02-11T19:31:09.377Z,8.70
2023-02-11T19:34:14.015Z,8.70
2023-02-11T19:37:15.793Z,8.70
2023-02-11T19:40:17.800Z,8.60
2023-02-11T19:43:19.526Z,8.60
2023-02-11T19:46:22.016Z,8.50
2023-02-11T19:49:25.795Z,8.50
2023-02-11T19:52:27.748Z,8.60
2023-02-11T19:55:29.720Z,8.50
2023-02-11T19:58:31.431Z,8.60
2023-02-11T20:01:33.204Z,8.60
2023-02-11T20:04:35.019Z,8.60
2023-02-11T20:07:36.778Z,8.60
2023-02-11T20:10:38.550Z,8.60
2023-02-11T20:13:40.400Z,8.60
2023-02-11T20:16:49.156Z,8.60
2023-02-11T20:19:51.640Z,8.60
2023-02-11T20:22:53.443Z,8.50
2023-02-11T20:25:55.438Z,8.50
2023-02-11T20:28:58.741Z,8.60
2023-02-11T20:32:00.658Z,8.50
2023-02-11T20:35:02.498Z,8.50
2023-02-11T20:38:04.237Z,8.50
2023-02-11T20:41:10.277Z,8.50
2023-02-11T20:44:12.546Z,8.50
2023-02-11T20:47:14.295Z,8.50
2023-02-11T20:50:16.144Z,8.50
2023-02-11T20:53:18.037Z,8.50
2023-02-11T20:56:23.316Z,8.50
2023-02-11T20:59:26.341Z,8.40
2023-02-11T21:02:30.182Z,8.50
2023-02-11T21:05:31.950Z,8.50
2023-02-11T21:08:33.739Z,8.50
2023-02-11T21:11:35.559Z,8.50
2023-02-11T21:14:37.300Z,8.50
2023-02-11T21:17:39.135Z,8.50
2023-02-11T21:20:43.730Z,8.40
2023-02-11T21:23:46.285Z,8.50
2023-02-11T21:26:48.139Z,8.50
2023-02-11T21:29:54.598Z,8.50
2023-02-11T21:32:58.535Z,8.50
2023-02-11T21:36:03.037Z,8.50
2023-02-11T21:39:05.869Z,8.40
2023-02-11T21:42:07.637Z,8.40
2023-02-11T21:45:09.820Z,8.40
2023-02-11T21:48:12.412Z,8.50
2023-02-11T21:51:19.846Z,8.40
2023-02-11T21:54:21.827Z,8.50
2023-02-11T21:57:24.052Z,8.40
2023-02-11T22:00:25.934Z,8.40
2023-02-11T22:03:28.047Z,8.50
2023-02-11T22:06:33.174Z,8.40
2023-02-11T22:09:34.948Z,8.40
2023-02-11T22:12:36.667Z,8.40
2023-02-11T22:15:39.369Z,8.40
2023-02-11T22:18:42.053Z,8.30
2023-02-11T22:21:43.786Z,8.40
2023-02-11T22:24:46.453Z,8.30
2023-02-11T22:27:48.225Z,8.30
2023-02-11T22:30:55.377Z,8.30
2023-02-11T22:33:57.921Z,8.30
2023-02-11T22:36:59.656Z,8.30
2023-02-11T22:40:01.412Z,8.30
2023-02-11T22:43:03.127Z,8.30
2023-02-11T22:46:07.304Z,8.20
2023-02-11T22:49:11.425Z,8.20
2023-02-11T22:52:17.181Z,8.30
2023-02-11T22:55:19.217Z,8.20
2023-02-11T22:58:20.925Z,8.30
2023-02-11T23:01:22.705Z,8.20
2023-02-11T23:04:24.456Z,8.30
2023-02-11T23:07:26.192Z,8.30
2023-02-11T23:10:27.957Z,8.30
2023-02-11T23:13:29.905Z,8.20
2023-02-11T23:16:34.091Z,8.20
2023-02-11T23:19:35.884Z,8.20
2023-02-11T23:22:37.580Z,8.20
2023-02-11T23:25:44.232Z,8.20
2023-02-11T23:28:46.930Z,8.20
2023-02-11T23:31:49.656Z,8.20
2023-02-11T23:34:52.658Z,8.20
2023-02-11T23:37:54.476Z,8.20
2023-02-11T23:40:56.186Z,8.20
2023-02-11T23:43:58.212Z,8.10
2023-02-11T23:46:59.950Z,8.20
2023-02-11T23:50:01.722Z,8.10
2023-02-11T23:53:03.419Z,8.10
2023-02-11T23:56:14.704Z,8.20
2023-02-11T23:59:17.003Z,8.20
